Lewisville, PA

6:46 PM EDT on April 26, 2015 (GMT -0400)
Wayside | | Change Station
CLOSE
Current Station
Personal Weather Station
Location: New London Twp, PA
Elevation: 300 ft
Nearby Weather Stations

Elev 300 ft 39.75 °N, 75.87 °W | Updated 43 seconds ago

Mostly Cloudy
Mostly Cloudy
59.2 °F
Feels Like 59.2 °F
N
2.1
Wind Variable Wind from NW
Gusts 6.0 mph

Today
High -- | Low -- °F
--% Chance of Precip.
Yesterday
High -- | Low -- °F
Precip. -- in
6:10 AM 7:52 PM
First Quarter, 59% visible
Pressure 29.68 in
Visibility 10.0 miles
Clouds Overcast 8500 ft
Dew Point 20 °F
Humidity 25%
Rainfall 0.00 in
Snow Depth Not available.
UV 1 out of 12
Pollen 9.70 out of 12
Air Quality Not available.
Flu Activity Sporadic
METAR KILG 262151Z 07003KT 10SM OVC085 17/M02 A2968 RMK AO2 SLP049 T01671017

More Conditions Fewer Conditions

Pressure 29.68 in
Visibility 10.0 miles
Clouds Overcast 8500 ft
Dew Point 20 °F
Humidity 25%
Rainfall 0.00 in
Snow Depth Not available.
UV 1 out of 12
Pollen 9.70 out of 12
Air Quality Not available.
Flu Activity Sporadic
METAR KILG 262151Z 07003KT 10SM OVC085 17/M02 A2968 RMK AO2 SLP049 T01671017

More Conditions Fewer Conditions

The full scope of the disaster following a powerful 7.8-magnitude earthquake in Nepal may not come into view for days, but global charities are already sending emergency aid. Click to see how you can help.

10-Day Weather Forecast

Almanac

Astronomy

Apr. 26, 2015 Rise Set
Actual Time
Civil Twilight
Nautical Twilight
Astronomical Twilight
Moon
Length of Visible Light
Length of Day
Tomorrow will be .
, % of the Moon is Illuminated

Today's Extremes

State Highs State Lows

Community

WunderPhotos

Upload Photos

1,817,149 photos uploaded!

WunderBlogs® & News

Nearby

Air Quality

  Air Quality AQ Index Pollutant
Not available.

Snow Depth

Station Depth Elevation

Earthquake Activity

City Distance Mag. Time & Date
Minimum magnitude displayed is 2.5.

Coastal Water Temperatures

Place Temperature

Stations

Nearby Weather Stations

Station Location Temp. Windchill Dew Point Humidity Wind Precip. Elev Updated Type